Time;durP1;ratioP1;P1;durP2;ratioP2;P2;SDS_P1;SDS_P2;PMS_P1;PMS_P2;Temp;Humidity;BMP_temperature;BMP_pressure;BME280_temperature;BME280_humidity;BME280_pressure;Samples;Min_cycle;Max_cycle;Signal;HPM_P1;HPM_P2
2022/09/07 00:01:31;;;;;;;9.70;6.30;;;19.90;99.90;;;;;;5042156;28;20389;-71
2022/09/07 00:03:57;;;;;;;2.53;1.40;;;19.90;99.90;;;;;;5045333;28;20879;-71
2022/09/07 00:06:22;;;;;;;3.40;1.40;;;19.80;99.90;;;;;;5036793;28;20383;-71
2022/09/07 00:08:48;;;;;;;2.20;1.60;;;19.70;99.90;;;;;;5049967;28;20381;-71
2022/09/07 00:11:16;;;;;;;2.40;1.60;;;19.70;99.90;;;;;;5040851;28;20386;-71
2022/09/07 00:13:44;;;;;;;2.72;1.40;;;19.60;99.90;;;;;;5049722;28;20443;-71
2022/09/07 00:16:15;;;;;;;3.55;1.42;;;19.60;99.90;;;;;;5047918;28;20466;-71
2022/09/07 00:18:41;;;;;;;2.40;1.50;;;19.60;99.90;;;;;;5049980;28;20377;-72
2022/09/07 00:21:08;;;;;;;3.50;1.55;;;19.50;99.90;;;;;;5050129;28;20430;-71
2022/09/07 00:23:36;;;;;;;2.80;1.10;;;19.50;99.90;;;;;;5049595;28;20400;-71
2022/09/07 00:26:08;;;;;;;3.38;1.60;;;19.40;99.90;;;;;;5049884;28;20472;-71
2022/09/07 00:28:34;;;;;;;7.23;1.60;;;19.40;99.90;;;;;;5050029;28;20370;-71
2022/09/07 00:31:00;;;;;;;3.92;1.60;;;19.40;99.90;;;;;;5049668;28;20389;-71
2022/09/07 00:33:26;;;;;;;4.00;1.50;;;19.40;99.90;;;;;;5049509;28;20385;-71
2022/09/07 00:35:51;;;;;;;3.10;1.50;;;19.40;99.90;;;;;;5049799;28;20397;-71
2022/09/07 00:38:17;;;;;;;2.80;1.60;;;19.30;99.90;;;;;;5045664;28;20400;-71
2022/09/07 00:40:43;;;;;;;1.95;1.50;;;19.30;99.90;;;;;;5043186;28;21029;-71
2022/09/07 00:43:15;;;;;;;4.33;1.70;;;19.20;99.90;;;;;;5048715;28;20462;-71
2022/09/07 00:45:41;;;;;;;2.88;1.60;;;19.20;99.90;;;;;;5042995;28;20385;-71
2022/09/07 00:48:15;;;;;;;5.30;1.60;;;19.00;99.90;;;;;;5049695;28;20389;-71
2022/09/07 00:50:55;;;;;;;3.95;1.50;;;19.00;99.90;;;;;;5049712;28;20550;-71
2022/09/07 00:53:29;;;;;;;3.63;1.67;;;18.90;99.90;;;;;;5049530;28;20381;-71
2022/09/07 00:55:56;;;;;;;4.20;1.50;;;18.90;99.90;;;;;;5049697;28;20747;-71
2022/09/07 00:58:23;;;;;;;2.67;1.70;;;18.80;99.90;;;;;;5047214;28;20893;-71
2022/09/07 01:00:49;;;;;;;3.83;1.50;;;18.80;99.90;;;;;;5043988;28;20493;-71
2022/09/07 01:03:18;;;;;;;3.40;1.42;;;18.80;99.90;;;;;;5047732;28;20439;-71
2022/09/07 01:06:12;;;;;;;3.00;1.60;;;18.80;99.90;;;;;;5043238;28;20975;-71
2022/09/07 01:08:40;;;;;;;5.20;1.75;;;18.80;99.90;;;;;;5049847;28;20383;-71
2022/09/07 01:11:05;;;;;;;2.60;1.42;;;18.80;99.90;;;;;;5049555;28;20385;-71
2022/09/07 01:13:31;;;;;;;3.00;1.50;;;18.80;99.90;;;;;;5049266;28;20388;-71
2022/09/07 01:16:21;;;;;;;2.00;1.80;;;18.80;99.90;;;;;;5049210;28;20378;-71
2022/09/07 01:19:12;;;;;;;2.93;1.80;;;18.80;99.90;;;;;;5049740;28;20470;-71
2022/09/07 01:22:01;;;;;;;2.50;1.58;;;18.80;99.90;;;;;;5049979;28;20531;-71
2022/09/07 01:24:59;;;;;;;1.93;1.43;;;18.80;99.90;;;;;;5052932;28;20827;-71
2022/09/07 01:27:47;;;;;;;3.03;1.40;;;18.80;99.90;;;;;;5037758;28;20387;-71
2022/09/07 01:30:22;;;;;;;3.63;1.90;;;18.70;99.90;;;;;;5033340;28;20391;-71
2022/09/07 01:33:15;;;;;;;7.15;1.90;;;18.70;99.90;;;;;;5032834;28;20490;-71
2022/09/07 01:35:59;;;;;;;3.60;1.80;;;18.70;99.90;;;;;;5033209;28;20768;-71
2022/09/07 01:38:37;;;;;;;4.30;1.50;;;18.70;99.90;;;;;;5033159;28;20500;-71
2022/09/07 01:41:02;;;;;;;3.67;1.60;;;18.70;99.90;;;;;;5032929;28;20971;-71
2022/09/07 01:43:49;;;;;;;3.80;1.92;;;18.80;99.90;;;;;;5056669;22;20471;-72
2022/09/07 01:46:34;;;;;;;2.10;1.50;;;18.80;99.90;;;;;;5033593;28;20414;-71
2022/09/07 01:49:09;;;;;;;3.50;1.60;;;18.80;99.90;;;;;;5013218;28;20796;-71
2022/09/07 01:51:41;;;;;;;3.10;1.80;;;18.80;99.90;;;;;;5013099;28;20393;-72
2022/09/07 01:54:27;;;;;;;1.70;1.48;;;18.80;99.90;;;;;;5012804;28;20377;-71
2022/09/07 01:56:58;;;;;;;5.20;1.90;;;18.70;99.90;;;;;;5013118;28;20377;-71
2022/09/07 01:59:41;;;;;;;2.22;1.50;;;18.70;99.90;;;;;;5033721;28;20821;-71
2022/09/07 02:02:17;;;;;;;3.47;1.60;;;18.70;99.90;;;;;;5032732;28;20761;-71
2022/09/07 02:05:20;;;;;;;2.75;1.30;;;18.60;99.90;;;;;;5032259;28;20718;-71
2022/09/07 02:07:52;;;;;;;2.50;1.60;;;18.70;99.90;;;;;;5033002;28;20387;-72
2022/09/07 02:10:27;;;;;;;3.70;1.95;;;18.70;99.90;;;;;;5032705;28;20772;-71
2022/09/07 02:13:11;;;;;;;2.00;1.60;;;18.80;99.90;;;;;;5032245;28;20397;-71
2022/09/07 02:15:45;;;;;;;3.30;1.50;;;18.80;99.90;;;;;;5032517;28;20395;-70
2022/09/07 02:18:15;;;;;;;3.70;1.55;;;18.80;99.90;;;;;;5032254;28;20429;-71
2022/09/07 02:20:48;;;;;;;4.57;1.77;;;18.80;99.90;;;;;;5032189;28;20417;-71
2022/09/07 02:23:19;;;;;;;3.65;1.45;;;18.70;99.90;;;;;;5031968;28;20390;-71
2022/09/07 02:25:54;;;;;;;2.23;1.70;;;18.80;99.90;;;;;;5032380;28;20406;-71
2022/09/07 02:28:28;;;;;;;3.47;2.00;;;18.70;99.90;;;;;;5032306;28;20387;-71
2022/09/07 02:30:53;;;;;;;6.40;1.63;;;18.70;99.90;;;;;;5032220;28;20460;-71
2022/09/07 02:33:19;;;;;;;4.50;2.00;;;18.70;99.90;;;;;;5031578;28;20391;-71
2022/09/07 02:35:45;;;;;;;2.63;1.70;;;18.70;99.90;;;;;;5032163;28;20426;-71
2022/09/07 02:38:10;;;;;;;3.40;1.58;;;18.50;99.90;;;;;;5032179;28;20390;-71
2022/09/07 02:40:36;;;;;;;4.33;1.70;;;18.50;99.90;;;;;;5031920;28;20796;-71
2022/09/07 02:43:05;;;;;;;3.10;1.40;;;18.50;99.90;;;;;;5031546;28;20460;-71
2022/09/07 02:45:57;;;;;;;4.20;1.90;;;18.50;99.90;;;;;;5031966;28;21132;-71
2022/09/07 02:48:41;;;;;;;7.07;2.03;;;18.60;99.90;;;;;;5031813;28;20383;-71
2022/09/07 02:51:32;;;;;;;3.08;1.80;;;19.30;99.90;;;;;;5031755;28;20376;-71
2022/09/07 02:54:12;;;;;;;3.38;2.25;;;19.10;99.90;;;;;;5020358;28;20934;-71
2022/09/07 02:56:57;;;;;;;5.22;2.25;;;19.80;99.90;;;;;;5031688;28;20452;-70
2022/09/07 02:59:35;;;;;;;4.68;1.92;;;20.50;99.90;;;;;;5031601;28;20445;-71
2022/09/07 03:02:12;;;;;;;5.80;2.03;;;20.80;99.90;;;;;;5031704;28;20466;-71
2022/09/07 03:04:44;;;;;;;4.25;2.30;;;21.10;99.90;;;;;;5031307;28;20387;-71
2022/09/07 03:07:18;;;;;;;5.28;2.10;;;21.60;99.90;;;;;;5031608;28;20757;-71
2022/09/07 03:09:48;;;;;;;5.60;2.38;;;21.90;99.90;;;;;;5031562;28;20395;-70
2022/09/07 03:12:15;;;;;;;3.25;2.00;;;22.00;99.90;;;;;;5031397;28;20444;-71
2022/09/07 03:14:42;;;;;;;4.00;1.90;;;22.10;99.90;;;;;;5031013;28;20415;-72
2022/09/07 03:17:08;;;;;;;5.22;1.92;;;22.10;99.90;;;;;;5031195;28;20729;-71
2022/09/07 03:19:34;;;;;;;3.90;2.10;;;22.20;99.90;;;;;;5031250;28;20402;-72
2022/09/07 03:21:59;;;;;;;4.37;1.83;;;22.10;99.90;;;;;;5031202;28;20452;-72
2022/09/07 03:24:25;;;;;;;4.50;1.80;;;22.20;99.90;;;;;;5013095;28;20889;-71
2022/09/07 03:26:50;;;;;;;3.33;1.80;;;22.40;99.90;;;;;;5031032;28;20394;-73
2022/09/07 03:29:17;;;;;;;3.85;2.20;;;22.30;99.90;;;;;;5031012;28;20394;-71
2022/09/07 03:31:43;;;;;;;7.03;2.20;;;22.30;99.90;;;;;;5031216;28;20383;-73
2022/09/07 03:34:09;;;;;;;4.93;2.10;;;22.30;99.90;;;;;;5031016;28;20475;-73
2022/09/07 03:36:35;;;;;;;4.43;2.13;;;22.20;99.90;;;;;;5031242;28;20891;-72
2022/09/07 03:39:01;;;;;;;5.00;2.30;;;22.20;99.90;;;;;;5031358;28;20433;-74
2022/09/07 03:41:27;;;;;;;4.97;2.60;;;22.20;99.90;;;;;;5031173;28;20828;-72
2022/09/07 03:43:53;;;;;;;6.63;2.33;;;22.20;99.90;;;;;;5030467;28;20894;-72
2022/09/07 03:46:19;;;;;;;3.83;2.15;;;22.20;99.90;;;;;;5030577;28;20383;-72
2022/09/07 03:48:46;;;;;;;6.30;2.20;;;22.20;99.90;;;;;;5031063;28;20466;-73
2022/09/07 03:51:14;;;;;;;3.40;2.28;;;22.20;99.90;;;;;;5030922;28;20390;-72
2022/09/07 03:53:42;;;;;;;6.80;2.13;;;22.20;99.90;;;;;;5030712;28;20394;-72
2022/09/07 03:56:10;;;;;;;4.60;2.00;;;22.20;99.90;;;;;;5030985;28;20482;-72
2022/09/07 03:58:36;;;;;;;5.47;2.20;;;22.20;99.90;;;;;;5030735;28;20383;-73
2022/09/07 04:01:10;;;;;;;4.70;2.25;;;22.10;99.90;;;;;;5030844;28;20414;-72
2022/09/07 04:03:36;;;;;;;5.32;2.20;;;22.00;99.90;;;;;;5030512;28;20386;-72
2022/09/07 04:06:02;;;;;;;4.65;2.10;;;21.80;99.90;;;;;;5030862;28;20956;-72
2022/09/07 04:08:31;;;;;;;4.97;2.00;;;21.70;99.90;;;;;;5031841;28;20390;-73
2022/09/07 04:11:00;;;;;;;6.32;2.00;;;22.00;99.90;;;;;;5038327;28;20395;-73
2022/09/07 04:13:27;;;;;;;4.70;2.20;;;22.10;99.90;;;;;;5035148;28;20398;-72
2022/09/07 04:15:53;;;;;;;5.60;2.70;;;22.30;99.90;;;;;;5029752;28;20440;-71
2022/09/07 04:18:20;;;;;;;3.78;1.95;;;22.40;99.90;;;;;;5028912;28;20383;-72
2022/09/07 04:20:45;;;;;;;4.70;2.10;;;22.20;99.90;;;;;;5030473;28;20407;-72
2022/09/07 04:23:11;;;;;;;4.70;2.50;;;22.20;99.90;;;;;;5030205;28;20394;-71
2022/09/07 04:25:37;;;;;;;3.47;2.40;;;22.20;99.90;;;;;;5030335;28;20418;-72
2022/09/07 04:28:03;;;;;;;4.68;2.15;;;22.30;99.90;;;;;;5030711;28;20904;-72
2022/09/07 04:30:29;;;;;;;6.45;2.15;;;22.20;99.90;;;;;;5030496;28;20402;-71
2022/09/07 04:32:54;;;;;;;8.37;2.30;;;22.20;99.90;;;;;;5030004;28;20383;-72
2022/09/07 04:35:20;;;;;;;4.00;2.20;;;22.20;99.90;;;;;;5030367;28;20399;-72
2022/09/07 04:37:46;;;;;;;7.32;2.38;;;22.20;99.90;;;;;;5027091;28;20808;-73
2022/09/07 04:40:12;;;;;;;5.40;2.38;;;22.10;99.90;;;;;;5010387;28;20500;-73
2022/09/07 04:42:37;;;;;;;4.67;2.07;;;22.00;99.90;;;;;;5010378;28;20822;-73
2022/09/07 04:45:03;;;;;;;3.83;2.00;;;22.00;99.90;;;;;;4992742;28;20408;-73
2022/09/07 04:47:29;;;;;;;3.55;2.30;;;22.00;99.90;;;;;;5010673;28;21071;-72
2022/09/07 04:49:56;;;;;;;6.75;2.80;;;22.00;99.90;;;;;;5010519;28;20467;-73
2022/09/07 04:52:22;;;;;;;4.10;2.40;;;22.00;99.90;;;;;;5010507;28;20894;-73
2022/09/07 04:54:52;;;;;;;3.60;2.10;;;22.00;99.90;;;;;;5010130;28;20385;-72
2022/09/07 04:57:20;;;;;;;5.60;2.50;;;22.00;99.90;;;;;;5013906;28;20759;-73
2022/09/07 04:59:47;;;;;;;5.40;2.10;;;22.10;99.90;;;;;;5014473;28;20507;-72
2022/09/07 05:02:13;;;;;;;4.45;2.20;;;22.10;99.90;;;;;;5014247;28;20456;-72
2022/09/07 05:04:38;;;;;;;3.20;2.10;;;22.10;99.90;;;;;;5014097;28;20392;-72
2022/09/07 05:07:04;;;;;;;4.55;2.50;;;22.10;99.90;;;;;;4996650;28;20389;-72
2022/09/07 05:09:29;;;;;;;3.23;1.87;;;22.10;99.90;;;;;;5014282;28;20461;-72
2022/09/07 05:11:55;;;;;;;3.28;2.10;;;22.10;99.90;;;;;;5014287;28;20973;-73
2022/09/07 05:14:20;;;;;;;3.90;2.23;;;22.00;99.90;;;;;;4996252;28;20384;-73
2022/09/07 05:16:46;;;;;;;5.13;2.10;;;22.10;99.90;;;;;;5014735;28;20467;-73
2022/09/07 05:19:13;;;;;;;5.50;2.30;;;22.00;99.90;;;;;;5015665;28;20394;-72
2022/09/07 05:21:38;;;;;;;6.03;2.05;;;21.90;99.90;;;;;;5015110;28;20467;-72
2022/09/07 05:24:05;;;;;;;3.80;2.00;;;22.00;99.90;;;;;;5014732;28;20396;-71
2022/09/07 05:26:34;;;;;;;4.05;1.95;;;22.00;99.90;;;;;;5022696;28;20399;-72
2022/09/07 05:29:01;;;;;;;2.50;1.95;;;22.10;99.90;;;;;;5034787;28;20379;-72
2022/09/07 05:31:27;;;;;;;4.30;1.87;;;22.10;99.90;;;;;;5040174;28;20456;-72
2022/09/07 05:34:03;;;;;;;3.10;1.90;;;22.10;99.90;;;;;;5041589;28;20399;-71
2022/09/07 05:36:29;;;;;;;4.85;2.10;;;22.10;99.90;;;;;;5033948;28;20398;-72
2022/09/07 05:38:57;;;;;;;3.47;1.90;;;22.10;99.90;;;;;;5012399;28;20482;-73
2022/09/07 05:41:24;;;;;;;4.20;2.07;;;22.10;99.90;;;;;;5039040;28;20397;-73
2022/09/07 05:43:51;;;;;;;3.20;2.00;;;22.00;99.90;;;;;;5034985;28;20395;-73
2022/09/07 05:46:17;;;;;;;4.90;2.10;;;22.00;99.90;;;;;;5035384;28;20432;-73
2022/09/07 05:48:44;;;;;;;4.70;2.08;;;22.00;99.90;;;;;;5038747;28;20378;-72
2022/09/07 05:51:11;;;;;;;4.03;2.15;;;21.90;99.90;;;;;;5037324;28;20406;-72
2022/09/07 05:53:37;;;;;;;3.30;2.00;;;21.90;99.90;;;;;;5034277;28;20470;-73
2022/09/07 05:56:04;;;;;;;3.17;1.48;;;21.90;99.90;;;;;;5014453;28;20975;-73
2022/09/07 05:58:31;;;;;;;3.80;1.95;;;21.80;99.90;;;;;;5011386;28;20396;-72
2022/09/07 06:00:58;;;;;;;2.95;2.20;;;21.80;99.90;;;;;;5000865;28;20418;-73
2022/09/07 06:03:23;;;;;;;3.05;1.80;;;21.90;99.90;;;;;;5031003;28;20387;-73
2022/09/07 06:05:58;;;;;;;4.47;1.85;;;21.90;99.90;;;;;;5031544;28;20470;-73
2022/09/07 06:08:24;;;;;;;4.43;2.10;;;21.90;99.90;;;;;;5030898;28;20410;-73
2022/09/07 06:10:49;;;;;;;3.50;1.73;;;21.90;99.90;;;;;;5027324;28;20393;-73
2022/09/07 06:13:15;;;;;;;3.53;2.10;;;22.00;99.90;;;;;;5012648;28;20380;-73
2022/09/07 06:15:40;;;;;;;3.53;2.03;;;22.00;99.90;;;;;;5013144;28;20397;-74
2022/09/07 06:18:06;;;;;;;4.38;1.80;;;22.00;99.90;;;;;;5012675;28;20380;-74
2022/09/07 06:20:32;;;;;;;4.00;2.15;;;22.00;99.90;;;;;;4999040;28;20411;-74
2022/09/07 06:22:58;;;;;;;4.53;2.10;;;22.00;99.90;;;;;;5031974;28;20398;-73
2022/09/07 06:25:23;;;;;;;3.40;1.85;;;22.00;99.90;;;;;;5032522;28;20773;-72
2022/09/07 06:27:49;;;;;;;2.20;1.80;;;22.10;99.90;;;;;;5032604;28;20521;-74
2022/09/07 06:30:15;;;;;;;2.03;1.57;;;22.10;99.90;;;;;;5033036;28;20489;-73
2022/09/07 06:32:40;;;;;;;4.60;1.90;;;22.10;99.90;;;;;;5031891;28;20392;-74
2022/09/07 06:35:06;;;;;;;4.13;1.80;;;22.10;99.90;;;;;;5032137;28;20399;-74
2022/09/07 06:37:32;;;;;;;2.72;1.90;;;22.20;99.90;;;;;;5025314;28;20415;-73
2022/09/07 06:39:57;;;;;;;3.70;1.90;;;22.20;99.90;;;;;;5026837;28;20792;-73
2022/09/07 06:42:23;;;;;;;3.30;1.83;;;22.20;99.90;;;;;;5031924;28;20549;-72
2022/09/07 06:44:48;;;;;;;2.13;1.90;;;22.20;99.90;;;;;;5034735;28;20490;-73
2022/09/07 06:47:14;;;;;;;4.07;2.00;;;22.20;99.90;;;;;;5034730;28;20406;-72
2022/09/07 06:49:39;;;;;;;3.22;2.30;;;22.20;99.90;;;;;;5034197;28;20425;-71
2022/09/07 06:52:05;;;;;;;4.40;2.70;;;22.20;99.90;;;;;;5030274;28;20404;-72
2022/09/07 06:54:30;;;;;;;3.27;2.10;;;22.20;99.90;;;;;;5019384;28;20416;-72
2022/09/07 06:56:56;;;;;;;5.28;1.70;;;22.20;99.90;;;;;;5028221;28;20391;-70
2022/09/07 06:59:21;;;;;;;3.27;2.03;;;22.20;99.90;;;;;;5029230;28;20407;-71
2022/09/07 07:01:47;;;;;;;3.40;2.03;;;22.20;99.90;;;;;;5030495;28;20391;-71
2022/09/07 07:04:13;;;;;;;3.88;2.25;;;22.20;99.90;;;;;;5011566;28;20482;-72
2022/09/07 07:06:39;;;;;;;3.00;1.80;;;22.30;99.90;;;;;;5035799;28;20919;-72
2022/09/07 07:09:07;;;;;;;2.33;1.50;;;22.30;99.90;;;;;;5031847;28;20742;-72
2022/09/07 07:11:35;;;;;;;3.15;2.33;;;22.30;99.90;;;;;;5031659;28;21241;-73
2022/09/07 07:14:01;;;;;;;4.87;2.00;;;22.30;99.90;;;;;;5024178;28;20496;-73
2022/09/07 07:16:27;;;;;;;3.40;1.98;;;22.30;99.90;;;;;;5026778;28;20761;-74
2022/09/07 07:18:56;;;;;;;3.28;2.20;;;22.40;99.90;;;;;;5025165;28;20406;-73
2022/09/07 07:21:21;;;;;;;3.33;1.80;;;22.40;99.90;;;;;;5030466;28;20410;-73
2022/09/07 07:23:51;;;;;;;4.10;1.77;;;22.50;99.90;;;;;;5030581;28;20383;-73
2022/09/07 07:26:19;;;;;;;4.32;1.90;;;22.50;99.90;;;;;;5031032;28;20396;-74
2022/09/07 07:28:49;;;;;;;3.00;1.80;;;22.50;99.90;;;;;;5031219;28;20387;-73
2022/09/07 07:31:19;;;;;;;3.88;2.30;;;22.50;99.90;;;;;;5031350;28;20416;-74
2022/09/07 07:33:46;;;;;;;3.50;1.70;;;22.50;99.90;;;;;;5030912;28;20399;-75
2022/09/07 07:36:24;;;;;;;3.80;1.92;;;22.60;99.90;;;;;;5020225;28;20916;-74
2022/09/07 07:38:51;;;;;;;4.53;3.40;;;22.60;99.90;;;;;;5026791;28;20423;-75
2022/09/07 07:41:20;;;;;;;7.88;5.85;;;22.60;99.90;;;;;;5030930;28;20770;-73
2022/09/07 07:43:47;;;;;;;2.05;1.80;;;22.50;99.90;;;;;;5030620;28;20391;-74
2022/09/07 07:46:14;;;;;;;4.87;1.80;;;22.60;99.90;;;;;;5052080;22;20431;-70
2022/09/07 07:48:39;;;;;;;2.27;2.00;;;22.60;99.90;;;;;;5049697;28;20385;-69
2022/09/07 07:51:12;;;;;;;2.30;2.00;;;22.50;99.90;;;;;;5048945;28;21079;-71
2022/09/07 07:53:39;;;;;;;5.40;1.80;;;22.60;99.90;;;;;;5043875;28;20398;-72
2022/09/07 07:56:06;;;;;;;3.40;2.05;;;22.60;99.90;;;;;;5049522;28;20405;-71
2022/09/07 07:58:34;;;;;;;4.28;1.90;;;22.70;99.90;;;;;;5046708;28;20393;-71
2022/09/07 08:01:01;;;;;;;3.15;1.67;;;22.80;99.90;;;;;;5050432;28;20496;-71
2022/09/07 08:03:27;;;;;;;3.40;1.90;;;22.80;99.90;;;;;;5050593;28;20401;-71
2022/09/07 08:05:53;;;;;;;3.13;2.00;;;23.00;99.90;;;;;;5050483;28;20923;-73
2022/09/07 08:08:20;;;;;;;2.17;1.70;;;23.00;99.90;;;;;;5047340;28;20868;-72
2022/09/07 08:10:46;;;;;;;3.22;1.88;;;23.00;99.90;;;;;;5044203;28;20788;-72
2022/09/07 08:13:13;;;;;;;2.60;1.73;;;23.10;99.90;;;;;;5043212;28;20414;-73
2022/09/07 08:15:43;;;;;;;3.00;1.80;;;23.10;99.90;;;;;;5048807;28;20390;-73
2022/09/07 08:18:11;;;;;;;2.25;1.63;;;23.10;99.90;;;;;;5043235;28;20462;-73
2022/09/07 08:20:36;;;;;;;4.60;1.80;;;23.00;99.90;;;;;;5046875;28;20432;-71
2022/09/07 08:23:02;;;;;;;3.55;2.00;;;23.10;99.90;;;;;;5048690;28;20786;-73
2022/09/07 08:25:27;;;;;;;3.40;1.80;;;23.20;99.90;;;;;;5050131;28;20484;-71
2022/09/07 08:27:53;;;;;;;66.30;53.53;;;23.20;99.90;;;;;;5048252;28;20401;-69
2022/09/07 08:30:19;;;;;;;11.30;10.10;;;23.20;99.90;;;;;;5049707;28;20454;-69
2022/09/07 08:32:44;;;;;;;3.25;1.60;;;23.20;99.90;;;;;;5050137;28;20393;-72
2022/09/07 08:35:10;;;;;;;7.80;7.00;;;23.30;99.90;;;;;;5042756;28;20416;-72
2022/09/07 08:37:35;;;;;;;2.50;1.90;;;23.30;99.90;;;;;;5045720;28;20417;-72
2022/09/07 08:40:01;;;;;;;4.80;1.77;;;23.40;99.90;;;;;;5049964;28;20433;-72
2022/09/07 08:43:02;;;;;;;3.38;1.50;;;23.50;99.90;;;;;;5044082;28;20708;-72
2022/09/07 08:45:36;;;;;;;1.63;1.53;;;23.60;99.90;;;;;;5049182;28;20408;-73
2022/09/07 08:48:03;;;;;;;3.97;1.60;;;23.60;99.90;;;;;;5050180;28;20430;-70
2022/09/07 08:50:37;;;;;;;2.45;1.90;;;23.60;99.90;;;;;;5050146;28;20385;-70
2022/09/07 08:53:11;;;;;;;2.67;1.80;;;23.60;99.90;;;;;;5049327;28;20747;-70
2022/09/07 08:55:39;;;;;;;2.95;1.55;;;23.60;99.90;;;;;;5049734;28;20464;-71
2022/09/07 08:58:22;;;;;;;1.70;1.40;;;23.80;99.90;;;;;;5050085;28;20465;-70
2022/09/07 09:00:48;;;;;;;4.00;2.08;;;23.90;99.90;;;;;;5046974;28;20928;-70
2022/09/07 09:03:32;;;;;;;2.50;1.60;;;24.00;99.90;;;;;;5049565;28;20390;-71
2022/09/07 09:06:02;;;;;;;3.80;1.60;;;24.00;99.90;;;;;;5049789;28;20732;-69
2022/09/07 09:08:39;;;;;;;1.67;1.58;;;23.90;99.90;;;;;;5049973;28;20423;-68
2022/09/07 09:11:12;;;;;;;2.30;1.50;;;24.00;99.90;;;;;;5030584;28;20481;-68
2022/09/07 09:14:07;;;;;;;2.13;1.60;;;24.20;99.90;;;;;;5029880;28;20387;-71
2022/09/07 09:16:40;;;;;;;2.40;1.60;;;24.10;99.90;;;;;;5029877;28;20387;-69
2022/09/07 09:19:20;;;;;;;3.00;1.63;;;24.10;99.90;;;;;;5029834;28;20446;-70
2022/09/07 09:21:46;;;;;;;2.13;1.38;;;24.20;99.90;;;;;;5029663;28;20505;-70
2022/09/07 09:24:15;;;;;;;2.20;1.35;;;24.20;99.90;;;;;;5029213;28;20879;-70
2022/09/07 09:26:44;;;;;;;3.92;1.50;;;24.30;99.90;;;;;;5038988;28;20421;-69
2022/09/07 09:29:20;;;;;;;2.70;1.80;;;24.30;99.90;;;;;;5047630;28;20402;-70
2022/09/07 09:31:46;;;;;;;2.97;1.60;;;24.40;99.90;;;;;;5041793;28;20907;-70
2022/09/07 09:34:14;;;;;;;4.03;3.25;;;24.40;99.90;;;;;;5044773;28;20415;-70
2022/09/07 09:36:51;;;;;;;3.03;2.55;;;24.50;99.90;;;;;;5042444;28;20402;-69
2022/09/07 09:39:34;;;;;;;2.60;1.60;;;24.60;99.90;;;;;;5046572;28;20425;-70
2022/09/07 09:42:16;;;;;;;1.40;1.30;;;24.60;99.90;;;;;;5043094;28;20895;-70
2022/09/07 09:44:43;;;;;;;1.50;1.40;;;24.70;99.90;;;;;;5052151;28;20876;-71
2022/09/07 09:47:29;;;;;;;1.83;1.20;;;24.80;99.90;;;;;;5053210;28;20388;-70
2022/09/07 09:49:56;;;;;;;1.75;1.60;;;24.80;99.90;;;;;;5053298;28;20377;-70
2022/09/07 09:52:23;;;;;;;2.58;1.42;;;24.80;99.90;;;;;;5053144;28;20390;-70
2022/09/07 09:54:51;;;;;;;3.13;1.45;;;24.80;99.90;;;;;;5050843;28;20930;-70
2022/09/07 09:57:51;;;;;;;2.00;1.50;;;24.80;99.90;;;;;;5049531;28;20411;-70
2022/09/07 10:00:22;;;;;;;3.22;1.52;;;24.90;99.90;;;;;;5048848;28;20413;-69
2022/09/07 10:03:16;;;;;;;3.20;1.80;;;24.90;99.90;;;;;;5052120;28;20424;-70
2022/09/07 10:05:46;;;;;;;3.55;1.70;;;25.00;99.90;;;;;;5052360;28;20756;-70
2022/09/07 10:08:16;;;;;;;3.30;1.73;;;25.00;99.90;;;;;;5052278;28;20381;-70
2022/09/07 10:11:01;;;;;;;2.80;1.73;;;25.00;99.90;;;;;;5052401;28;20472;-69
2022/09/07 10:13:35;;;;;;;2.03;1.83;;;25.10;99.90;;;;;;5051523;28;20867;-70
2022/09/07 10:16:04;;;;;;;1.80;1.70;;;25.20;99.90;;;;;;5050764;28;20397;-69
2022/09/07 10:18:34;;;;;;;3.08;1.88;;;25.20;99.90;;;;;;5043513;28;20412;-70
2022/09/07 10:21:23;;;;;;;2.50;1.58;;;25.30;99.90;;;;;;5044581;28;20411;-70
2022/09/07 10:23:55;;;;;;;2.00;1.80;;;25.30;99.90;;;;;;5041431;28;20943;-70
2022/09/07 10:26:28;;;;;;;2.78;1.67;;;25.30;99.90;;;;;;5030802;28;20455;-71
2022/09/07 10:29:05;;;;;;;3.63;1.70;;;25.40;99.90;;;;;;5048614;28;20386;-71
2022/09/07 10:31:32;;;;;;;3.07;1.93;;;25.50;99.90;;;;;;5040988;28;20419;-71
2022/09/07 10:34:07;;;;;;;2.40;1.40;;;25.60;99.90;;;;;;5049387;28;20405;-70
2022/09/07 10:36:55;;;;;;;1.70;1.60;;;25.70;99.90;;;;;;5045434;28;20572;-70
2022/09/07 10:39:34;;;;;;;2.33;1.85;;;25.80;99.10;;;;;;5042611;28;20920;-70
2022/09/07 10:42:28;;;;;;;2.30;1.60;;;25.90;98.50;;;;;;5044399;28;20846;-70
2022/09/07 10:45:11;;;;;;;2.60;1.30;;;25.90;96.90;;;;;;5045453;28;20409;-71
2022/09/07 10:47:52;;;;;;;2.72;1.80;;;26.00;96.90;;;;;;5044308;28;20399;-71
2022/09/07 10:50:28;;;;;;;2.10;1.90;;;26.10;97.70;;;;;;5059316;28;20915;-72
2022/09/07 10:53:29;;;;;;;1.80;1.63;;;26.10;98.20;;;;;;5046850;28;20429;-71
2022/09/07 10:56:11;;;;;;;2.60;1.80;;;26.00;96.80;;;;;;5046466;28;20441;-70
2022/09/07 10:58:40;;;;;;;1.80;1.60;;;26.00;96.40;;;;;;5044682;28;20385;-70
2022/09/07 11:01:19;;;;;;;1.65;1.55;;;26.10;97.30;;;;;;5047985;28;20413;-70
2022/09/07 11:04:03;;;;;;;3.45;1.90;;;26.20;96.60;;;;;;5051656;28;20818;-70
2022/09/07 11:06:35;;;;;;;2.08;1.67;;;26.30;94.90;;;;;;5048965;28;20394;-70
2022/09/07 11:09:04;;;;;;;2.10;1.40;;;26.30;95.20;;;;;;5050957;28;20411;-69
2022/09/07 11:11:50;;;;;;;2.30;1.57;;;26.20;93.30;;;;;;5051424;28;20404;-71
2022/09/07 11:14:20;;;;;;;4.20;2.10;;;26.30;94.90;;;;;;5045801;28;20437;-70
2022/09/07 11:17:12;;;;;;;2.00;1.50;;;26.60;94.50;;;;;;5042620;28;20390;-68
2022/09/07 11:19:46;;;;;;;3.88;1.65;;;26.90;92.30;;;;;;5042676;28;20886;-69
2022/09/07 11:22:29;;;;;;;2.58;1.80;;;27.10;91.00;;;;;;5046385;28;20380;-70
2022/09/07 11:25:05;;;;;;;2.75;1.60;;;27.50;89.60;;;;;;5051204;28;20468;-70
2022/09/07 11:27:54;;;;;;;2.07;1.67;;;27.50;88.10;;;;;;5034651;28;20817;-70
2022/09/07 11:30:30;;;;;;;3.23;1.33;;;27.00;91.80;;;;;;5031421;28;20877;-72
2022/09/07 11:33:01;;;;;;;2.78;1.50;;;27.00;93.80;;;;;;5013303;28;20394;-69
2022/09/07 11:35:42;;;;;;;2.25;1.23;;;27.10;91.10;;;;;;5031159;28;20379;-70
2022/09/07 11:38:24;;;;;;;1.65;1.52;;;27.20;89.50;;;;;;5031248;28;20383;-69
2022/09/07 11:40:59;;;;;;;1.40;1.30;;;27.60;88.20;;;;;;5039374;28;20891;-69
2022/09/07 11:43:33;;;;;;;3.10;1.30;;;28.40;82.70;;;;;;5049962;28;20729;-70
2022/09/07 11:46:08;;;;;;;2.45;1.48;;;28.70;82.00;;;;;;5049546;28;20404;-70
2022/09/07 11:48:55;;;;;;;1.58;1.20;;;28.20;79.30;;;;;;5054329;28;20421;-70
2022/09/07 11:51:40;;;;;;;3.00;1.60;;;27.40;83.00;;;;;;5048965;28;20440;-69
2022/09/07 11:54:31;;;;;;;1.87;1.70;;;27.30;85.20;;;;;;5040784;28;20887;-68
2022/09/07 11:57:11;;;;;;;2.60;1.60;;;27.60;86.10;;;;;;5042054;28;20447;-69
2022/09/07 11:59:49;;;;;;;2.00;1.40;;;27.80;82.80;;;;;;5043504;28;20386;-70
2022/09/07 12:02:27;;;;;;;1.90;1.30;;;27.80;79.20;;;;;;5050711;28;20405;-70
2022/09/07 12:05:30;;;;;;;2.35;1.60;;;27.60;79.60;;;;;;5050384;28;20427;-70
2022/09/07 12:08:13;;;;;;;1.90;1.30;;;27.50;79.90;;;;;;5050601;28;20378;-70
2022/09/07 12:10:39;;;;;;;1.60;1.20;;;27.40;77.90;;;;;;5050594;28;20378;-70
2022/09/07 12:13:26;;;;;;;4.43;1.50;;;27.40;80.40;;;;;;5050226;28;20741;-71
2022/09/07 12:15:57;;;;;;;1.70;1.50;;;27.60;78.90;;;;;;5050358;28;20384;-70
2022/09/07 12:18:48;;;;;;;1.35;1.10;;;27.80;76.70;;;;;;5050502;28;20389;-70
2022/09/07 12:21:51;;;;;;;2.30;1.17;;;27.90;78.90;;;;;;5043434;28;20418;-70
2022/09/07 12:24:47;;;;;;;2.00;1.33;;;28.10;74.90;;;;;;5045663;28;20392;-70
2022/09/07 12:27:18;;;;;;;2.63;1.27;;;28.80;74.20;;;;;;5041989;28;20387;-70
2022/09/07 12:29:49;;;;;;;1.60;1.50;;;29.10;66.30;;;;;;5042404;28;20444;-68
2022/09/07 12:32:45;;;;;;;2.23;1.20;;;29.10;66.60;;;;;;5040514;28;20459;-68
2022/09/07 12:35:32;;;;;;;1.58;1.25;;;29.40;70.10;;;;;;5040033;28;20436;-68
2022/09/07 12:37:59;;;;;;;3.35;1.38;;;29.40;66.50;;;;;;5044543;28;20387;-69
2022/09/07 12:40:27;;;;;;;2.40;1.10;;;29.50;67.50;;;;;;5042410;28;20405;-69
2022/09/07 12:43:11;;;;;;;1.20;1.10;;;29.20;62.70;;;;;;5047280;28;20374;-70
2022/09/07 12:45:37;;;;;;;1.42;1.20;;;29.00;64.00;;;;;;5051492;28;20879;-70
2022/09/07 12:48:19;;;;;;;1.20;1.10;;;29.10;62.20;;;;;;5044940;28;20385;-69
2022/09/07 12:51:09;;;;;;;1.80;1.17;;;28.80;63.50;;;;;;5048792;28;20827;-69
2022/09/07 12:53:50;;;;;;;1.70;1.10;;;28.40;65.00;;;;;;5042136;28;20370;-71
2022/09/07 12:56:27;;;;;;;1.42;1.10;;;28.30;65.80;;;;;;5050066;28;20381;-70
2022/09/07 12:59:19;;;;;;;1.88;1.25;;;28.40;67.90;;;;;;5050387;28;20662;-70
2022/09/07 13:01:56;;;;;;;1.58;1.20;;;28.50;71.70;;;;;;5050123;28;20444;-70
2022/09/07 13:04:39;;;;;;;1.92;1.42;;;28.60;70.70;;;;;;5049827;28;20390;-69
2022/09/07 13:07:32;;;;;;;2.30;1.40;;;28.60;69.00;;;;;;5049961;28;20381;-69
2022/09/07 13:10:00;;;;;;;1.42;1.30;;;28.40;68.30;;;;;;5050115;28;20381;-70
2022/09/07 13:12:37;;;;;;;1.67;1.25;;;27.90;70.60;;;;;;5049912;28;20388;-69